sensor_id;sensor_type;location;lat;lon;timestamp;pressure;altitude;pressure_sealevel;temperature;humidity
62800;BME280;48842;51.046;13.796;2023-07-20T00:01:19;99898.09;;;21.41;59.46
62800;BME280;48842;51.046;13.796;2023-07-20T00:03:45;99906.06;;;21.41;59.42
62800;BME280;48842;51.046;13.796;2023-07-20T00:06:19;99896.19;;;21.43;59.50
62800;BME280;48842;51.046;13.796;2023-07-20T00:08:45;99893.53;;;21.43;59.41
62800;BME280;48842;51.046;13.796;2023-07-20T00:11:10;99897.16;;;21.42;59.61
62800;BME280;48842;51.046;13.796;2023-07-20T00:13:35;99893.59;;;21.42;59.54
62800;BME280;48842;51.046;13.796;2023-07-20T00:16:01;99901.75;;;21.39;59.94
62800;BME280;48842;51.046;13.796;2023-07-20T00:18:26;99900.03;;;21.38;59.99
62800;BME280;48842;51.046;13.796;2023-07-20T00:20:51;99901.13;;;21.34;60.28
62800;BME280;48842;51.046;13.796;2023-07-20T00:23:16;99896.03;;;21.29;60.27
62800;BME280;48842;51.046;13.796;2023-07-20T00:25:41;99888.16;;;21.26;60.43
62800;BME280;48842;51.046;13.796;2023-07-20T00:28:07;99889.09;;;21.25;60.47
62800;BME280;48842;51.046;13.796;2023-07-20T00:30:32;99888.16;;;21.26;60.64
62800;BME280;48842;51.046;13.796;2023-07-20T00:32:57;99883.69;;;21.26;60.95
62800;BME280;48842;51.046;13.796;2023-07-20T00:35:23;99892.53;;;21.27;61.02
62800;BME280;48842;51.046;13.796;2023-07-20T00:37:48;99892.47;;;21.28;60.74
62800;BME280;48842;51.046;13.796;2023-07-20T00:40:13;99888.88;;;21.30;60.82
62800;BME280;48842;51.046;13.796;2023-07-20T00:42:39;99897.81;;;21.28;60.93
62800;BME280;48842;51.046;13.796;2023-07-20T00:45:05;99901.28;;;21.31;60.63
62800;BME280;48842;51.046;13.796;2023-07-20T00:47:31;99902.13;;;21.31;60.85
62800;BME280;48842;51.046;13.796;2023-07-20T00:49:56;99911.03;;;21.30;61.05
62800;BME280;48842;51.046;13.796;2023-07-20T00:52:23;99904.09;;;21.27;60.86
62800;BME280;48842;51.046;13.796;2023-07-20T00:54:49;99899.63;;;21.28;60.85
62800;BME280;48842;51.046;13.796;2023-07-20T00:57:15;99901.47;;;21.26;60.94
62800;BME280;48842;51.046;13.796;2023-07-20T00:59:41;99908.59;;;21.25;60.83
62800;BME280;48842;51.046;13.796;2023-07-20T01:02:06;99901.47;;;21.26;60.89
62800;BME280;48842;51.046;13.796;2023-07-20T01:04:32;99893.47;;;21.26;60.74
62800;BME280;48842;51.046;13.796;2023-07-20T01:07:03;99897.09;;;21.25;60.69
62800;BME280;48842;51.046;13.796;2023-07-20T01:09:45;99898.69;;;21.29;60.30
62800;BME280;48842;51.046;13.796;2023-07-20T01:12:18;99906.59;;;21.31;60.50
62800;BME280;48842;51.046;13.796;2023-07-20T01:14:48;99898.53;;;21.32;60.32
62800;BME280;48842;51.046;13.796;2023-07-20T01:17:14;99890.53;;;21.32;60.35
62800;BME280;48842;51.046;13.796;2023-07-20T01:19:39;99894.28;;;21.28;60.24
62800;BME280;48842;51.046;13.796;2023-07-20T01:32:36;99920.19;;;21.05;60.32
62800;BME280;48842;51.046;13.796;2023-07-20T01:35:05;99915.81;;;21.04;60.17
62800;BME280;48842;51.046;13.796;2023-07-20T01:37:31;99915.75;;;21.06;60.31
62800;BME280;48842;51.046;13.796;2023-07-20T01:39:58;99919.19;;;21.08;60.16
62800;BME280;48842;51.046;13.796;2023-07-20T01:42:24;99916.31;;;21.13;59.65
62800;BME280;48842;51.046;13.796;2023-07-20T01:44:53;99921.41;;;21.17;59.65
62800;BME280;48842;51.046;13.796;2023-07-20T01:47:18;99909.59;;;21.23;59.64
62800;BME280;48842;51.046;13.796;2023-07-20T01:49:44;99913.94;;;21.25;59.37
62800;BME280;48842;51.046;13.796;2023-07-20T01:52:09;99918.41;;;21.25;59.35
62800;BME280;48842;51.046;13.796;2023-07-20T01:54:34;99908.69;;;21.24;59.08
62800;BME280;48842;51.046;13.796;2023-07-20T01:57:00;99912.28;;;21.23;59.61
62800;BME280;48842;51.046;13.796;2023-07-20T01:59:25;99910.41;;;21.25;59.58
62800;BME280;48842;51.046;13.796;2023-07-20T02:01:50;99914.66;;;21.29;59.15
62800;BME280;48842;51.046;13.796;2023-07-20T02:04:15;99915.97;;;21.39;58.55
62800;BME280;48842;51.046;13.796;2023-07-20T02:06:41;99913.16;;;21.42;57.88
62800;BME280;48842;51.046;13.796;2023-07-20T02:09:06;99906.84;;;21.43;58.01
62800;BME280;48842;51.046;13.796;2023-07-20T02:11:31;99912.34;;;21.40;57.82
62800;BME280;48842;51.046;13.796;2023-07-20T02:13:56;99906.44;;;21.34;58.07
62800;BME280;48842;51.046;13.796;2023-07-20T02:16:22;99907.47;;;21.31;58.03
62800;BME280;48842;51.046;13.796;2023-07-20T02:18:47;99905.00;;;21.26;58.02
62800;BME280;48842;51.046;13.796;2023-07-20T02:21:12;99911.34;;;21.24;58.02
62800;BME280;48842;51.046;13.796;2023-07-20T02:23:38;99912.41;;;21.20;58.62
62800;BME280;48842;51.046;13.796;2023-07-20T02:26:03;99913.31;;;21.20;58.63
62800;BME280;48842;51.046;13.796;2023-07-20T02:28:28;99915.09;;;21.20;58.87
62800;BME280;48842;51.046;13.796;2023-07-20T02:30:54;99917.75;;;21.20;58.73
62800;BME280;48842;51.046;13.796;2023-07-20T02:33:19;99926.75;;;21.17;59.09
62800;BME280;48842;51.046;13.796;2023-07-20T02:35:45;99925.03;;;21.16;59.10
62800;BME280;48842;51.046;13.796;2023-07-20T02:38:10;99927.63;;;21.18;59.32
62800;BME280;48842;51.046;13.796;2023-07-20T02:40:36;99919.56;;;21.19;59.81
62800;BME280;48842;51.046;13.796;2023-07-20T02:43:01;99922.16;;;21.21;59.35
62800;BME280;48842;51.046;13.796;2023-07-20T02:45:26;99921.94;;;21.25;59.46
62800;BME280;48842;51.046;13.796;2023-07-20T02:47:51;99923.66;;;21.26;59.14
62800;BME280;48842;51.046;13.796;2023-07-20T02:50:16;99924.53;;;21.27;58.90
62800;BME280;48842;51.046;13.796;2023-07-20T02:52:42;99924.75;;;21.22;59.16
62800;BME280;48842;51.046;13.796;2023-07-20T02:55:07;99925.75;;;21.20;59.06
62800;BME280;48842;51.046;13.796;2023-07-20T02:57:33;99932.88;;;21.19;58.99
62800;BME280;48842;51.046;13.796;2023-07-20T02:59:58;99940.03;;;21.19;59.19
62800;BME280;48842;51.046;13.796;2023-07-20T03:02:23;99941.88;;;21.17;59.57
62800;BME280;48842;51.046;13.796;2023-07-20T03:04:50;99942.59;;;21.20;59.45
62800;BME280;48842;51.046;13.796;2023-07-20T03:07:15;99953.19;;;21.22;59.11
62800;BME280;48842;51.046;13.796;2023-07-20T03:09:40;99948.88;;;21.19;59.45
62800;BME280;48842;51.046;13.796;2023-07-20T03:12:06;99946.28;;;21.18;59.00
62800;BME280;48842;51.046;13.796;2023-07-20T03:14:32;99944.47;;;21.18;58.99
62800;BME280;48842;51.046;13.796;2023-07-20T03:16:57;99947.19;;;21.17;59.25
62800;BME280;48842;51.046;13.796;2023-07-20T03:19:22;99952.53;;;21.17;59.16
62800;BME280;48842;51.046;13.796;2023-07-20T03:21:47;99953.38;;;21.17;59.18
62800;BME280;48842;51.046;13.796;2023-07-20T03:24:13;99949.09;;;21.15;59.31
62800;BME280;48842;51.046;13.796;2023-07-20T03:26:38;99958.06;;;21.12;59.25
62800;BME280;48842;51.046;13.796;2023-07-20T03:29:04;99959.75;;;21.15;59.25
62800;BME280;48842;51.046;13.796;2023-07-20T03:31:31;99965.06;;;21.15;58.93
62800;BME280;48842;51.046;13.796;2023-07-20T03:33:56;99959.75;;;21.15;59.04
62800;BME280;48842;51.046;13.796;2023-07-20T03:36:21;99956.25;;;21.13;58.93
62800;BME280;48842;51.046;13.796;2023-07-20T03:38:47;99956.25;;;21.13;58.94
62800;BME280;48842;51.046;13.796;2023-07-20T03:41:12;99957.16;;;21.13;58.67
62800;BME280;48842;51.046;13.796;2023-07-20T03:43:37;99959.59;;;21.18;58.82
62800;BME280;48842;51.046;13.796;2023-07-20T03:46:03;99958.59;;;21.20;58.86
62800;BME280;48842;51.046;13.796;2023-07-20T03:48:32;99953.38;;;21.17;58.63
62800;BME280;48842;51.046;13.796;2023-07-20T03:50:57;99949.22;;;21.12;58.51
62800;BME280;48842;51.046;13.796;2023-07-20T03:53:23;99950.09;;;21.12;58.82
62800;BME280;48842;51.046;13.796;2023-07-20T03:55:50;99952.69;;;21.14;58.56
62800;BME280;48842;51.046;13.796;2023-07-20T03:58:16;99958.16;;;21.10;58.77
62800;BME280;48842;51.046;13.796;2023-07-20T04:00:46;99958.00;;;21.14;58.76
62800;BME280;48842;51.046;13.796;2023-07-20T04:03:11;99963.34;;;21.14;58.86
62800;BME280;48842;51.046;13.796;2023-07-20T04:05:37;99962.47;;;21.13;58.99
62800;BME280;48842;51.046;13.796;2023-07-20T04:08:02;99958.84;;;21.14;58.95
62800;BME280;48842;51.046;13.796;2023-07-20T04:10:27;99968.50;;;21.17;58.62
62800;BME280;48842;51.046;13.796;2023-07-20T04:12:53;99965.84;;;21.17;58.10
62800;BME280;48842;51.046;13.796;2023-07-20T04:15:18;99969.38;;;21.17;58.31
62800;BME280;48842;51.046;13.796;2023-07-20T04:17:45;99967.44;;;21.21;58.35
62800;BME280;48842;51.046;13.796;2023-07-20T04:20:10;99968.22;;;21.23;58.58
62800;BME280;48842;51.046;13.796;2023-07-20T04:22:35;99968.22;;;21.23;58.53
62800;BME280;48842;51.046;13.796;2023-07-20T04:25:01;99962.72;;;21.27;58.39
62800;BME280;48842;51.046;13.796;2023-07-20T04:27:26;99959.00;;;21.30;58.01
62800;BME280;48842;51.046;13.796;2023-07-20T04:29:51;99961.44;;;21.35;58.16
62800;BME280;48842;51.046;13.796;2023-07-20T04:32:17;99966.59;;;21.39;57.75
62800;BME280;48842;51.046;13.796;2023-07-20T04:34:42;99969.09;;;21.42;57.87
62800;BME280;48842;51.046;13.796;2023-07-20T04:37:07;99965.47;;;21.43;57.64
62800;BME280;48842;51.046;13.796;2023-07-20T04:39:33;99967.22;;;21.44;57.67
62800;BME280;48842;51.046;13.796;2023-07-20T04:41:58;99971.63;;;21.45;57.54
62800;BME280;48842;51.046;13.796;2023-07-20T04:44:23;99963.47;;;21.49;57.65
62800;BME280;48842;51.046;13.796;2023-07-20T04:46:49;99966.16;;;21.49;57.80
62800;BME280;48842;51.046;13.796;2023-07-20T04:49:14;99970.44;;;21.53;57.72
62800;BME280;48842;51.046;13.796;2023-07-20T04:51:40;99965.81;;;21.56;57.81
62800;BME280;48842;51.046;13.796;2023-07-20T04:54:05;99970.91;;;21.61;57.70
62800;BME280;48842;51.046;13.796;2023-07-20T04:56:30;99976.25;;;21.61;57.56
62800;BME280;48842;51.046;13.796;2023-07-20T04:58:55;99971.78;;;21.61;57.53
62800;BME280;48842;51.046;13.796;2023-07-20T05:01:21;99972.50;;;21.65;57.51
62800;BME280;48842;51.046;13.796;2023-07-20T05:03:46;99970.63;;;21.67;57.28
62800;BME280;48842;51.046;13.796;2023-07-20T05:06:12;99971.25;;;21.72;56.66
62800;BME280;48842;51.046;13.796;2023-07-20T05:08:37;99978.34;;;21.73;56.79
62800;BME280;48842;51.046;13.796;2023-07-20T05:11:04;99975.66;;;21.73;56.77
62800;BME280;48842;51.046;13.796;2023-07-20T05:13:29;99986.56;;;21.69;57.17
62800;BME280;48842;51.046;13.796;2023-07-20T05:15:54;99975.25;;;21.64;56.74
62800;BME280;48842;51.046;13.796;2023-07-20T05:18:20;99981.72;;;21.58;56.97
62800;BME280;48842;51.046;13.796;2023-07-20T05:20:47;99974.75;;;21.55;57.24
62800;BME280;48842;51.046;13.796;2023-07-20T05:23:12;99972.09;;;21.55;56.94
62800;BME280;48842;51.046;13.796;2023-07-20T05:25:38;99978.28;;;21.56;56.88
62800;BME280;48842;51.046;13.796;2023-07-20T05:28:03;99977.50;;;21.54;56.89
62800;BME280;48842;51.046;13.796;2023-07-20T05:30:28;99977.63;;;21.51;57.18
62800;BME280;48842;51.046;13.796;2023-07-20T05:32:54;99978.53;;;21.50;57.32
62800;BME280;48842;51.046;13.796;2023-07-20T05:35:20;99969.66;;;21.30;57.59
62800;BME280;48842;51.046;13.796;2023-07-20T05:37:45;99975.16;;;21.46;57.61
62800;BME280;48842;51.046;13.796;2023-07-20T05:40:11;99973.03;;;21.54;57.36
62800;BME280;48842;51.046;13.796;2023-07-20T05:42:38;99973.53;;;21.63;57.29
62800;BME280;48842;51.046;13.796;2023-07-20T05:45:03;99970.41;;;21.72;57.31
62800;BME280;48842;51.046;13.796;2023-07-20T05:47:29;99972.53;;;21.83;57.29
62800;BME280;48842;51.046;13.796;2023-07-20T05:49:54;99975.63;;;21.92;57.00
62800;BME280;48842;51.046;13.796;2023-07-20T05:52:19;99978.88;;;21.99;56.71
62800;BME280;48842;51.046;13.796;2023-07-20T05:54:45;99978.72;;;22.02;56.63
62800;BME280;48842;51.046;13.796;2023-07-20T05:57:10;99983.09;;;22.03;56.38
62800;BME280;48842;51.046;13.796;2023-07-20T05:59:36;99983.47;;;21.95;56.07
62800;BME280;48842;51.046;13.796;2023-07-20T06:02:01;99997.13;;;21.89;55.95
62800;BME280;48842;51.046;13.796;2023-07-20T06:04:27;99983.22;;;21.83;55.91
62800;BME280;48842;51.046;13.796;2023-07-20T06:06:52;99994.03;;;21.79;56.31
62800;BME280;48842;51.046;13.796;2023-07-20T06:09:17;99990.44;;;21.81;56.46
62800;BME280;48842;51.046;13.796;2023-07-20T06:11:42;99995.31;;;21.90;56.34
62800;BME280;48842;51.046;13.796;2023-07-20T06:14:08;99991.41;;;21.97;55.93
62800;BME280;48842;51.046;13.796;2023-07-20T06:16:33;99995.72;;;22.00;56.11
62800;BME280;48842;51.046;13.796;2023-07-20T06:18:59;99998.41;;;22.00;55.87
62800;BME280;48842;51.046;13.796;2023-07-20T06:21:25;99992.13;;;22.01;56.03
62800;BME280;48842;51.046;13.796;2023-07-20T06:23:50;99999.25;;;22.00;55.87
62800;BME280;48842;51.046;13.796;2023-07-20T06:26:15;100005.41;;;22.02;55.88
62800;BME280;48842;51.046;13.796;2023-07-20T06:28:41;100016.50;;;21.93;56.11
62800;BME280;48842;51.046;13.796;2023-07-20T06:31:06;100017.94;;;21.81;56.39
62800;BME280;48842;51.046;13.796;2023-07-20T06:33:31;100031.22;;;21.64;56.92
62800;BME280;48842;51.046;13.796;2023-07-20T06:35:57;100018.94;;;21.40;57.70
62800;BME280;48842;51.046;13.796;2023-07-20T06:38:23;100016.91;;;21.26;58.20
62800;BME280;48842;51.046;13.796;2023-07-20T06:40:51;100014.88;;;21.13;58.48
62800;BME280;48842;51.046;13.796;2023-07-20T06:43:16;100014.28;;;21.06;58.98
62800;BME280;48842;51.046;13.796;2023-07-20T06:45:42;100021.47;;;21.04;59.03
62800;BME280;48842;51.046;13.796;2023-07-20T06:48:07;100023.28;;;21.03;59.02
62800;BME280;48842;51.046;13.796;2023-07-20T06:50:33;100024.34;;;20.99;58.55
62800;BME280;48842;51.046;13.796;2023-07-20T06:52:59;100035.00;;;20.99;58.67
62800;BME280;48842;51.046;13.796;2023-07-20T06:55:25;100039.25;;;21.03;58.89
62800;BME280;48842;51.046;13.796;2023-07-20T06:57:51;100043.59;;;21.06;59.08
62800;BME280;48842;51.046;13.796;2023-07-20T07:00:17;100038.06;;;21.10;59.24
62800;BME280;48842;51.046;13.796;2023-07-20T07:02:43;100047.72;;;21.13;59.34
62800;BME280;48842;51.046;13.796;2023-07-20T07:05:08;100042.97;;;21.20;59.30
62800;BME280;48842;51.046;13.796;2023-07-20T07:07:33;100045.47;;;21.23;58.88
62800;BME280;48842;51.046;13.796;2023-07-20T07:10:00;100049.53;;;21.32;57.70
62800;BME280;48842;51.046;13.796;2023-07-20T07:12:25;100046.69;;;21.36;57.24
62800;BME280;48842;51.046;13.796;2023-07-20T07:14:50;100048.31;;;21.39;57.10
62800;BME280;48842;51.046;13.796;2023-07-20T07:17:16;100045.59;;;21.40;57.23
62800;BME280;48842;51.046;13.796;2023-07-20T07:19:41;100040.19;;;21.42;57.53
62800;BME280;48842;51.046;13.796;2023-07-20T07:22:07;100041.91;;;21.43;57.53
62800;BME280;48842;51.046;13.796;2023-07-20T07:24:32;100038.25;;;21.45;57.85
62800;BME280;48842;51.046;13.796;2023-07-20T07:27:01;100045.91;;;21.53;57.75
62800;BME280;48842;51.046;13.796;2023-07-20T07:29:26;100046.38;;;21.63;57.48
62800;BME280;48842;51.046;13.796;2023-07-20T07:31:52;100046.81;;;21.73;57.79
62800;BME280;48842;51.046;13.796;2023-07-20T07:34:17;100038.13;;;21.87;57.44
62800;BME280;48842;51.046;13.796;2023-07-20T07:36:43;100041.84;;;22.02;57.28
62800;BME280;48842;51.046;13.796;2023-07-20T07:39:08;100035.06;;;22.13;57.11
62800;BME280;48842;51.046;13.796;2023-07-20T07:41:34;100042.63;;;22.23;57.13
62800;BME280;48842;51.046;13.796;2023-07-20T07:43:59;100047.38;;;22.35;56.91
62800;BME280;48842;51.046;13.796;2023-07-20T07:46:25;100047.88;;;22.43;56.40
62800;BME280;48842;51.046;13.796;2023-07-20T07:48:50;100043.47;;;22.42;56.46
62800;BME280;48842;51.046;13.796;2023-07-20T07:51:15;100052.28;;;22.44;56.52
62800;BME280;48842;51.046;13.796;2023-07-20T07:53:40;100050.63;;;22.42;55.61
62800;BME280;48842;51.046;13.796;2023-07-20T07:56:09;100050.78;;;22.39;55.42
62800;BME280;48842;51.046;13.796;2023-07-20T07:58:34;100055.38;;;22.35;55.12
62800;BME280;48842;51.046;13.796;2023-07-20T08:01:00;100050.03;;;22.35;55.33
62800;BME280;48842;51.046;13.796;2023-07-20T08:03:25;100044.38;;;22.41;54.87
62800;BME280;48842;51.046;13.796;2023-07-20T08:05:54;100043.94;;;22.51;54.62
62800;BME280;48842;51.046;13.796;2023-07-20T08:08:20;100035.00;;;22.52;54.16
62800;BME280;48842;51.046;13.796;2023-07-20T08:10:45;100041.72;;;22.59;53.74
62800;BME280;48842;51.046;13.796;2023-07-20T08:13:11;100038.63;;;22.68;53.38
62800;BME280;48842;51.046;13.796;2023-07-20T08:15:36;100044.03;;;22.66;52.81
62800;BME280;48842;51.046;13.796;2023-07-20T08:18:02;100037.34;;;22.58;52.98
62800;BME280;48842;51.046;13.796;2023-07-20T08:20:27;100045.69;;;22.52;52.91
62800;BME280;48842;51.046;13.796;2023-07-20T08:22:54;100048.78;;;22.42;53.27
62800;BME280;48842;51.046;13.796;2023-07-20T08:25:20;100045.19;;;22.43;53.56
62800;BME280;48842;51.046;13.796;2023-07-20T08:27:45;100055.41;;;22.53;53.60
62800;BME280;48842;51.046;13.796;2023-07-20T08:30:12;100041.72;;;22.59;53.63
62800;BME280;48842;51.046;13.796;2023-07-20T08:32:38;100043.22;;;22.64;53.74
62800;BME280;48842;51.046;13.796;2023-07-20T08:35:03;100047.47;;;22.69;53.21
62800;BME280;48842;51.046;13.796;2023-07-20T08:37:30;100045.81;;;22.66;53.19
62800;BME280;48842;51.046;13.796;2023-07-20T08:39:55;100052.41;;;22.59;53.38
62800;BME280;48842;51.046;13.796;2023-07-20T08:42:20;100054.72;;;22.49;53.61
62800;BME280;48842;51.046;13.796;2023-07-20T08:44:48;100052.56;;;22.38;53.92
62800;BME280;48842;51.046;13.796;2023-07-20T08:47:15;100056.38;;;22.33;53.99
62800;BME280;48842;51.046;13.796;2023-07-20T08:49:41;100050.41;;;22.27;53.92
62800;BME280;48842;51.046;13.796;2023-07-20T08:52:07;100051.34;;;22.26;54.19
62800;BME280;48842;51.046;13.796;2023-07-20T08:54:33;100048.59;;;22.28;53.31
62800;BME280;48842;51.046;13.796;2023-07-20T08:57:02;100052.06;;;22.30;53.15
62800;BME280;48842;51.046;13.796;2023-07-20T08:59:28;100054.38;;;22.38;53.14
62800;BME280;48842;51.046;13.796;2023-07-20T09:01:56;100053.03;;;22.46;52.54
62800;BME280;48842;51.046;13.796;2023-07-20T09:04:22;100063.25;;;22.56;52.47
62800;BME280;48842;51.046;13.796;2023-07-20T09:06:49;100052.97;;;22.65;51.64
62800;BME280;48842;51.046;13.796;2023-07-20T09:09:14;100046.63;;;22.68;51.13
62800;BME280;48842;51.046;13.796;2023-07-20T09:11:40;100051.66;;;22.74;51.33
62800;BME280;48842;51.046;13.796;2023-07-20T09:14:07;100053.06;;;22.81;51.17
62800;BME280;48842;51.046;13.796;2023-07-20T09:16:46;100057.31;;;22.86;50.76
62800;BME280;48842;51.046;13.796;2023-07-20T09:19:11;100059.16;;;22.83;49.95
62800;BME280;48842;51.046;13.796;2023-07-20T09:21:36;100045.13;;;22.80;49.49
62800;BME280;48842;51.046;13.796;2023-07-20T09:24:02;100051.06;;;22.85;49.60
62800;BME280;48842;51.046;13.796;2023-07-20T09:26:27;100045.44;;;22.91;49.72
62800;BME280;48842;51.046;13.796;2023-07-20T09:28:53;100043.13;;;23.01;49.74
62800;BME280;48842;51.046;13.796;2023-07-20T09:31:20;100039.69;;;23.16;48.94
62800;BME280;48842;51.046;13.796;2023-07-20T09:33:47;100043.50;;;23.28;48.42
62800;BME280;48842;51.046;13.796;2023-07-20T09:36:13;100031.38;;;23.39;48.41
62800;BME280;48842;51.046;13.796;2023-07-20T09:38:41;100040.34;;;23.53;48.18
62800;BME280;48842;51.046;13.796;2023-07-20T09:41:06;100038.81;;;23.65;47.95
62800;BME280;48842;51.046;13.796;2023-07-20T09:43:34;100044.88;;;23.69;47.69
62800;BME280;48842;51.046;13.796;2023-07-20T09:45:59;100047.47;;;23.70;47.40
62800;BME280;48842;51.046;13.796;2023-07-20T09:48:25;100042.00;;;23.72;47.04
62800;BME280;48842;51.046;13.796;2023-07-20T09:50:54;100052.44;;;23.77;47.37
62800;BME280;48842;51.046;13.796;2023-07-20T09:53:20;100050.31;;;23.83;47.38
62800;BME280;48842;51.046;13.796;2023-07-20T09:55:47;100044.25;;;23.80;46.83
62800;BME280;48842;51.046;13.796;2023-07-20T09:58:14;100051.78;;;23.73;47.03
62800;BME280;48842;51.046;13.796;2023-07-20T10:00:40;100049.50;;;23.65;47.14
62800;BME280;48842;51.046;13.796;2023-07-20T10:03:11;100045.78;;;23.52;47.38
62800;BME280;48842;51.046;13.796;2023-07-20T10:05:40;100058.72;;;23.44;47.72
62800;BME280;48842;51.046;13.796;2023-07-20T10:08:11;100069.66;;;23.39;48.17
62800;BME280;48842;51.046;13.796;2023-07-20T10:10:38;100083.25;;;23.34;50.40
62800;BME280;48842;51.046;13.796;2023-07-20T10:13:06;100092.09;;;23.01;53.62
62800;BME280;48842;51.046;13.796;2023-07-20T10:15:36;100072.97;;;22.39;55.52
62800;BME280;48842;51.046;13.796;2023-07-20T10:18:24;100085.00;;;21.73;56.81
62800;BME280;48842;51.046;13.796;2023-07-20T10:20:54;100080.72;;;21.30;58.39
62800;BME280;48842;51.046;13.796;2023-07-20T10:23:21;100076.41;;;21.06;59.21
62800;BME280;48842;51.046;13.796;2023-07-20T10:25:47;100078.50;;;21.00;60.80
62800;BME280;48842;51.046;13.796;2023-07-20T10:28:13;100084.41;;;21.06;61.48
62800;BME280;48842;51.046;13.796;2023-07-20T10:30:39;100082.78;;;21.23;61.96
62800;BME280;48842;51.046;13.796;2023-07-20T10:33:05;100072.22;;;21.40;61.75
62800;BME280;48842;51.046;13.796;2023-07-20T10:35:31;100061.78;;;21.56;61.87
62800;BME280;48842;51.046;13.796;2023-07-20T10:38:15;100064.03;;;21.66;61.56
62800;BME280;48842;51.046;13.796;2023-07-20T10:40:40;100069.84;;;21.74;61.54
62800;BME280;48842;51.046;13.796;2023-07-20T10:43:07;100077.50;;;21.82;61.26
62800;BME280;48842;51.046;13.796;2023-07-20T10:48:21;100065.38;;;22.12;60.36
62800;BME280;48842;51.046;13.796;2023-07-20T10:51:13;100063.81;;;22.26;59.90
62800;BME280;48842;51.046;13.796;2023-07-20T10:53:39;100060.47;;;22.40;59.63
62800;BME280;48842;51.046;13.796;2023-07-20T10:56:14;100068.59;;;22.56;59.63
62800;BME280;48842;51.046;13.796;2023-07-20T10:58:43;100057.22;;;22.70;58.96
62800;BME280;48842;51.046;13.796;2023-07-20T11:01:13;100058.56;;;22.78;58.25
62800;BME280;48842;51.046;13.796;2023-07-20T11:03:39;100060.34;;;22.78;57.68
62800;BME280;48842;51.046;13.796;2023-07-20T11:06:34;100058.16;;;22.69;57.29
62800;BME280;48842;51.046;13.796;2023-07-20T11:09:10;100072.84;;;22.60;56.91
62800;BME280;48842;51.046;13.796;2023-07-20T11:11:37;100068.84;;;22.51;57.18
62800;BME280;48842;51.046;13.796;2023-07-20T11:19:04;100067.47;;;22.42;57.02
62800;BME280;48842;51.046;13.796;2023-07-20T11:21:37;100057.69;;;22.43;57.18
62800;BME280;48842;51.046;13.796;2023-07-20T11:24:04;100055.25;;;22.56;56.84
62800;BME280;48842;51.046;13.796;2023-07-20T11:26:30;100052.97;;;22.65;56.13
62800;BME280;48842;51.046;13.796;2023-07-20T11:28:55;100048.97;;;22.74;56.12
62800;BME280;48842;51.046;13.796;2023-07-20T11:31:20;100057.75;;;22.94;56.15
62800;BME280;48842;51.046;13.796;2023-07-20T11:33:46;100052.19;;;23.16;55.80
62800;BME280;48842;51.046;13.796;2023-07-20T11:36:12;100049.72;;;23.29;55.59
62800;BME280;48842;51.046;13.796;2023-07-20T11:38:40;100043.00;;;23.38;56.08
62800;BME280;48842;51.046;13.796;2023-07-20T11:41:07;100047.06;;;23.45;55.71
62800;BME280;48842;51.046;13.796;2023-07-20T11:43:32;100044.75;;;23.55;55.34
62800;BME280;48842;51.046;13.796;2023-07-20T11:45:59;100048.47;;;23.68;55.32
62800;BME280;48842;51.046;13.796;2023-07-20T11:48:24;100054.09;;;23.79;53.71
62800;BME280;48842;51.046;13.796;2023-07-20T11:50:50;100046.09;;;23.79;52.76
62800;BME280;48842;51.046;13.796;2023-07-20T11:53:16;100042.47;;;23.80;52.31
62800;BME280;48842;51.046;13.796;2023-07-20T11:55:42;100042.91;;;23.88;52.72
62800;BME280;48842;51.046;13.796;2023-07-20T11:58:08;100033.41;;;23.99;52.47
62800;BME280;48842;51.046;13.796;2023-07-20T12:00:35;100041.03;;;24.07;51.31
62800;BME280;48842;51.046;13.796;2023-07-20T12:03:00;100040.31;;;24.03;50.81
62800;BME280;48842;51.046;13.796;2023-07-20T12:05:26;100044.19;;;23.97;50.67
62800;BME280;48842;51.046;13.796;2023-07-20T12:07:52;100050.44;;;23.98;51.03
62800;BME280;48842;51.046;13.796;2023-07-20T12:10:24;100043.34;;;23.97;51.68
62800;BME280;48842;51.046;13.796;2023-07-20T12:12:50;100040.06;;;23.92;51.36
62800;BME280;48842;51.046;13.796;2023-07-20T12:15:24;100044.16;;;23.81;51.49
62800;BME280;48842;51.046;13.796;2023-07-20T12:17:53;100045.63;;;23.71;51.30
62800;BME280;48842;51.046;13.796;2023-07-20T12:23:02;100044.47;;;23.43;52.16
62800;BME280;48842;51.046;13.796;2023-07-20T12:25:48;100049.31;;;23.37;53.52
62800;BME280;48842;51.046;13.796;2023-07-20T12:28:16;100065.91;;;23.26;53.08
62800;BME280;48842;51.046;13.796;2023-07-20T12:30:43;100063.91;;;23.13;53.61
62800;BME280;48842;51.046;13.796;2023-07-20T12:33:09;100073.06;;;23.08;54.13
62800;BME280;48842;51.046;13.796;2023-07-20T12:35:35;100064.34;;;23.04;54.67
62800;BME280;48842;51.046;13.796;2023-07-20T12:38:00;100068.06;;;23.01;54.70
62800;BME280;48842;51.046;13.796;2023-07-20T12:40:26;100066.25;;;23.02;55.36
62800;BME280;48842;51.046;13.796;2023-07-20T12:42:51;100076.75;;;23.05;55.46
62800;BME280;48842;51.046;13.796;2023-07-20T12:45:16;100085.72;;;23.04;55.62
62800;BME280;48842;51.046;13.796;2023-07-20T12:47:42;100082.75;;;22.93;55.52
62800;BME280;48842;51.046;13.796;2023-07-20T12:50:10;100080.69;;;22.80;54.84
62800;BME280;48842;51.046;13.796;2023-07-20T12:52:39;100080.09;;;22.75;55.21
62800;BME280;48842;51.046;13.796;2023-07-20T12:55:09;100089.13;;;22.73;55.29
62800;BME280;48842;51.046;13.796;2023-07-20T12:57:35;100106.06;;;22.72;55.04
62800;BME280;48842;51.046;13.796;2023-07-20T13:00:06;100112.91;;;22.60;55.13
62800;BME280;48842;51.046;13.796;2023-07-20T13:02:33;100104.69;;;22.45;54.74